sensor_id;sensor_type;location;lat;lon;timestamp;temperature;humidity
44817;DHT22;30529;53.570;9.964;2022-09-21T00:00:50;9.60;99.90
44817;DHT22;30529;53.570;9.964;2022-09-21T00:03:16;9.50;99.90
44817;DHT22;30529;53.570;9.964;2022-09-21T00:05:42;9.50;99.90
44817;DHT22;30529;53.570;9.964;2022-09-21T00:08:11;9.50;99.90
44817;DHT22;30529;53.570;9.964;2022-09-21T00:10:38;9.60;99.90
44817;DHT22;30529;53.570;9.964;2022-09-21T00:13:05;9.50;99.90
44817;DHT22;30529;53.570;9.964;2022-09-21T00:15:31;9.50;99.90
44817;DHT22;30529;53.570;9.964;2022-09-21T00:17:58;9.50;99.90
44817;DHT22;30529;53.570;9.964;2022-09-21T00:20:26;9.50;99.90
44817;DHT22;30529;53.570;9.964;2022-09-21T00:22:53;9.50;99.90
44817;DHT22;30529;53.570;9.964;2022-09-21T00:25:19;9.40;99.90
44817;DHT22;30529;53.570;9.964;2022-09-21T00:27:46;9.40;99.90
44817;DHT22;30529;53.570;9.964;2022-09-21T00:30:14;9.40;99.90
44817;DHT22;30529;53.570;9.964;2022-09-21T00:32:40;9.40;99.90
44817;DHT22;30529;53.570;9.964;2022-09-21T00:35:07;9.40;99.90
44817;DHT22;30529;53.570;9.964;2022-09-21T00:37:34;9.40;99.90
44817;DHT22;30529;53.570;9.964;2022-09-21T00:40:01;9.40;99.90
44817;DHT22;30529;53.570;9.964;2022-09-21T00:42:30;9.40;99.90
44817;DHT22;30529;53.570;9.964;2022-09-21T00:44:57;9.40;99.90
44817;DHT22;30529;53.570;9.964;2022-09-21T00:47:30;9.40;99.90
44817;DHT22;30529;53.570;9.964;2022-09-21T00:49:59;9.40;99.90
44817;DHT22;30529;53.570;9.964;2022-09-21T00:52:30;9.40;99.90
44817;DHT22;30529;53.570;9.964;2022-09-21T00:55:03;9.30;99.90
44817;DHT22;30529;53.570;9.964;2022-09-21T00:57:31;9.30;99.90
44817;DHT22;30529;53.570;9.964;2022-09-21T01:00:00;9.30;99.90
44817;DHT22;30529;53.570;9.964;2022-09-21T01:02:27;9.30;99.90
44817;DHT22;30529;53.570;9.964;2022-09-21T01:04:54;9.30;99.90
44817;DHT22;30529;53.570;9.964;2022-09-21T01:07:26;9.20;99.90
44817;DHT22;30529;53.570;9.964;2022-09-21T01:09:56;9.20;99.90
44817;DHT22;30529;53.570;9.964;2022-09-21T01:12:37;9.20;99.90
44817;DHT22;30529;53.570;9.964;2022-09-21T01:18:26;9.20;99.90
44817;DHT22;30529;53.570;9.964;2022-09-21T01:23:41;9.20;99.90
44817;DHT22;30529;53.570;9.964;2022-09-21T01:29:25;9.20;99.90
44817;DHT22;30529;53.570;9.964;2022-09-21T01:34:29;9.10;99.90
44817;DHT22;30529;53.570;9.964;2022-09-21T01:37:03;9.10;99.90
44817;DHT22;30529;53.570;9.964;2022-09-21T01:39:32;9.10;99.90
44817;DHT22;30529;53.570;9.964;2022-09-21T01:42:01;9.10;99.90
44817;DHT22;30529;53.570;9.964;2022-09-21T01:44:30;9.10;99.90
44817;DHT22;30529;53.570;9.964;2022-09-21T01:47:00;9.10;99.90
44817;DHT22;30529;53.570;9.964;2022-09-21T01:49:35;9.10;99.90
44817;DHT22;30529;53.570;9.964;2022-09-21T01:55:08;9.10;99.90
44817;DHT22;30529;53.570;9.964;2022-09-21T01:57:44;9.10;99.90
44817;DHT22;30529;53.570;9.964;2022-09-21T02:00:13;9.10;99.90
44817;DHT22;30529;53.570;9.964;2022-09-21T02:02:51;9.00;99.90
44817;DHT22;30529;53.570;9.964;2022-09-21T02:05:21;9.00;99.90
44817;DHT22;30529;53.570;9.964;2022-09-21T02:07:49;9.00;99.90
44817;DHT22;30529;53.570;9.964;2022-09-21T02:10:26;9.00;99.90
44817;DHT22;30529;53.570;9.964;2022-09-21T02:12:57;9.00;99.90
44817;DHT22;30529;53.570;9.964;2022-09-21T02:15:36;8.90;99.90
44817;DHT22;30529;53.570;9.964;2022-09-21T02:18:15;8.90;99.90
44817;DHT22;30529;53.570;9.964;2022-09-21T02:20:48;8.90;99.90
44817;DHT22;30529;53.570;9.964;2022-09-21T02:23:26;8.90;99.90
44817;DHT22;30529;53.570;9.964;2022-09-21T02:26:09;8.90;99.90
44817;DHT22;30529;53.570;9.964;2022-09-21T02:31:48;8.90;99.90
44817;DHT22;30529;53.570;9.964;2022-09-21T02:34:27;8.80;99.90
44817;DHT22;30529;53.570;9.964;2022-09-21T02:37:04;8.80;99.90
44817;DHT22;30529;53.570;9.964;2022-09-21T02:40:00;8.80;99.90
44817;DHT22;30529;53.570;9.964;2022-09-21T02:42:31;8.80;99.90
44817;DHT22;30529;53.570;9.964;2022-09-21T02:45:19;8.80;99.90
44817;DHT22;30529;53.570;9.964;2022-09-21T02:48:06;8.80;99.90
44817;DHT22;30529;53.570;9.964;2022-09-21T02:50:49;8.80;99.90
44817;DHT22;30529;53.570;9.964;2022-09-21T02:53:20;8.80;99.90
44817;DHT22;30529;53.570;9.964;2022-09-21T02:55:47;8.80;99.90
44817;DHT22;30529;53.570;9.964;2022-09-21T02:58:15;8.80;99.90
44817;DHT22;30529;53.570;9.964;2022-09-21T03:00:42;8.80;99.90
44817;DHT22;30529;53.570;9.964;2022-09-21T03:03:17;8.80;99.90
44817;DHT22;30529;53.570;9.964;2022-09-21T03:05:45;8.80;99.90
44817;DHT22;30529;53.570;9.964;2022-09-21T03:08:12;8.70;99.90
44817;DHT22;30529;53.570;9.964;2022-09-21T03:10:38;8.70;99.90
44817;DHT22;30529;53.570;9.964;2022-09-21T03:13:06;8.70;99.90
44817;DHT22;30529;53.570;9.964;2022-09-21T03:15:37;8.70;99.90
44817;DHT22;30529;53.570;9.964;2022-09-21T03:18:04;8.70;99.90
44817;DHT22;30529;53.570;9.964;2022-09-21T03:20:32;8.70;99.90
44817;DHT22;30529;53.570;9.964;2022-09-21T03:22:59;8.70;99.90
44817;DHT22;30529;53.570;9.964;2022-09-21T03:25:26;8.70;99.90
44817;DHT22;30529;53.570;9.964;2022-09-21T03:27:52;8.70;99.90
44817;DHT22;30529;53.570;9.964;2022-09-21T03:30:19;8.70;99.90
44817;DHT22;30529;53.570;9.964;2022-09-21T03:32:49;8.70;99.90
44817;DHT22;30529;53.570;9.964;2022-09-21T03:35:15;8.60;99.90
44817;DHT22;30529;53.570;9.964;2022-09-21T03:37:42;8.70;99.90
44817;DHT22;30529;53.570;9.964;2022-09-21T03:40:08;8.60;99.90
44817;DHT22;30529;53.570;9.964;2022-09-21T03:42:36;8.60;99.90
44817;DHT22;30529;53.570;9.964;2022-09-21T03:45:02;8.60;99.90
44817;DHT22;30529;53.570;9.964;2022-09-21T03:47:28;8.60;99.90
44817;DHT22;30529;53.570;9.964;2022-09-21T03:49:54;8.60;99.90
44817;DHT22;30529;53.570;9.964;2022-09-21T03:52:20;8.60;99.90
44817;DHT22;30529;53.570;9.964;2022-09-21T03:54:46;8.60;99.90
44817;DHT22;30529;53.570;9.964;2022-09-21T03:57:12;8.60;99.90
44817;DHT22;30529;53.570;9.964;2022-09-21T03:59:38;8.60;99.90
44817;DHT22;30529;53.570;9.964;2022-09-21T04:02:04;8.60;99.90
44817;DHT22;30529;53.570;9.964;2022-09-21T04:04:30;8.60;99.90
44817;DHT22;30529;53.570;9.964;2022-09-21T04:06:58;8.60;99.90
44817;DHT22;30529;53.570;9.964;2022-09-21T04:09:24;8.60;99.90
44817;DHT22;30529;53.570;9.964;2022-09-21T04:11:50;8.70;99.90
44817;DHT22;30529;53.570;9.964;2022-09-21T04:14:18;8.70;99.90
44817;DHT22;30529;53.570;9.964;2022-09-21T04:16:45;8.70;99.90
44817;DHT22;30529;53.570;9.964;2022-09-21T04:19:11;8.70;99.90
44817;DHT22;30529;53.570;9.964;2022-09-21T04:21:37;8.70;99.90
44817;DHT22;30529;53.570;9.964;2022-09-21T04:24:03;8.70;99.90
44817;DHT22;30529;53.570;9.964;2022-09-21T04:26:31;8.70;99.90
44817;DHT22;30529;53.570;9.964;2022-09-21T04:28:58;8.70;99.90
44817;DHT22;30529;53.570;9.964;2022-09-21T04:31:25;8.60;99.90
44817;DHT22;30529;53.570;9.964;2022-09-21T04:33:53;8.60;99.90
44817;DHT22;30529;53.570;9.964;2022-09-21T04:36:21;8.60;99.90
44817;DHT22;30529;53.570;9.964;2022-09-21T04:38:48;8.60;99.90
44817;DHT22;30529;53.570;9.964;2022-09-21T04:41:15;8.60;99.90
44817;DHT22;30529;53.570;9.964;2022-09-21T04:43:43;8.60;99.90
44817;DHT22;30529;53.570;9.964;2022-09-21T04:46:14;8.50;99.90
44817;DHT22;30529;53.570;9.964;2022-09-21T04:48:41;8.50;99.90
44817;DHT22;30529;53.570;9.964;2022-09-21T04:51:09;8.50;99.90
44817;DHT22;30529;53.570;9.964;2022-09-21T04:53:37;8.50;99.90
44817;DHT22;30529;53.570;9.964;2022-09-21T04:56:05;8.50;99.90
44817;DHT22;30529;53.570;9.964;2022-09-21T04:58:32;8.50;99.90
44817;DHT22;30529;53.570;9.964;2022-09-21T05:00:58;8.50;99.90
44817;DHT22;30529;53.570;9.964;2022-09-21T05:03:25;8.50;99.90
44817;DHT22;30529;53.570;9.964;2022-09-21T05:05:53;8.50;99.90
44817;DHT22;30529;53.570;9.964;2022-09-21T05:08:21;8.50;99.90
44817;DHT22;30529;53.570;9.964;2022-09-21T05:11:13;8.40;99.90
44817;DHT22;30529;53.570;9.964;2022-09-21T05:13:41;8.50;99.90
44817;DHT22;30529;53.570;9.964;2022-09-21T05:16:08;8.50;99.90
44817;DHT22;30529;53.570;9.964;2022-09-21T05:18:34;8.50;99.90
44817;DHT22;30529;53.570;9.964;2022-09-21T05:21:02;8.50;99.90
44817;DHT22;30529;53.570;9.964;2022-09-21T05:23:29;8.50;99.90
44817;DHT22;30529;53.570;9.964;2022-09-21T05:25:57;8.50;99.90
44817;DHT22;30529;53.570;9.964;2022-09-21T05:28:24;8.50;99.90
44817;DHT22;30529;53.570;9.964;2022-09-21T05:33:33;8.50;99.90
44817;DHT22;30529;53.570;9.964;2022-09-21T05:38:29;8.60;99.90
44817;DHT22;30529;53.570;9.964;2022-09-21T05:40:56;8.60;99.90
44817;DHT22;30529;53.570;9.964;2022-09-21T05:43:22;8.60;99.90
44817;DHT22;30529;53.570;9.964;2022-09-21T05:46:02;8.60;99.90
44817;DHT22;30529;53.570;9.964;2022-09-21T05:48:39;8.60;99.90
44817;DHT22;30529;53.570;9.964;2022-09-21T05:51:59;8.60;99.90
44817;DHT22;30529;53.570;9.964;2022-09-21T06:03:31;8.70;99.90
44817;DHT22;30529;53.570;9.964;2022-09-21T06:05:58;8.70;99.90
44817;DHT22;30529;53.570;9.964;2022-09-21T06:08:25;8.70;99.90
44817;DHT22;30529;53.570;9.964;2022-09-21T06:10:51;8.70;99.90
44817;DHT22;30529;53.570;9.964;2022-09-21T06:13:17;8.80;99.90
44817;DHT22;30529;53.570;9.964;2022-09-21T06:15:43;8.90;99.90
44817;DHT22;30529;53.570;9.964;2022-09-21T06:18:09;8.90;99.90
44817;DHT22;30529;53.570;9.964;2022-09-21T06:20:36;8.90;99.90
44817;DHT22;30529;53.570;9.964;2022-09-21T06:23:07;8.90;99.90
44817;DHT22;30529;53.570;9.964;2022-09-21T06:25:33;9.00;99.90
44817;DHT22;30529;53.570;9.964;2022-09-21T06:28:11;9.00;99.90
44817;DHT22;30529;53.570;9.964;2022-09-21T06:30:38;9.00;99.90
44817;DHT22;30529;53.570;9.964;2022-09-21T06:33:06;9.10;99.90
44817;DHT22;30529;53.570;9.964;2022-09-21T06:35:33;9.10;99.90
44817;DHT22;30529;53.570;9.964;2022-09-21T06:38:00;9.20;99.90
44817;DHT22;30529;53.570;9.964;2022-09-21T06:40:28;9.20;99.90
44817;DHT22;30529;53.570;9.964;2022-09-21T06:42:56;9.30;99.90
44817;DHT22;30529;53.570;9.964;2022-09-21T06:45:22;9.30;99.90
44817;DHT22;30529;53.570;9.964;2022-09-21T06:47:48;9.40;99.90
44817;DHT22;30529;53.570;9.964;2022-09-21T06:50:14;9.40;99.90
44817;DHT22;30529;53.570;9.964;2022-09-21T06:52:40;9.50;99.90
44817;DHT22;30529;53.570;9.964;2022-09-21T06:55:07;9.50;99.90
44817;DHT22;30529;53.570;9.964;2022-09-21T06:57:35;9.50;99.90
44817;DHT22;30529;53.570;9.964;2022-09-21T07:00:05;9.60;99.90
44817;DHT22;30529;53.570;9.964;2022-09-21T07:02:31;9.60;99.90
44817;DHT22;30529;53.570;9.964;2022-09-21T07:04:57;9.70;99.90
44817;DHT22;30529;53.570;9.964;2022-09-21T07:07:24;9.70;99.90
44817;DHT22;30529;53.570;9.964;2022-09-21T07:09:50;9.70;99.90
44817;DHT22;30529;53.570;9.964;2022-09-21T07:12:17;9.80;99.90
44817;DHT22;30529;53.570;9.964;2022-09-21T07:14:43;9.90;99.90
44817;DHT22;30529;53.570;9.964;2022-09-21T07:17:11;10.00;99.90
44817;DHT22;30529;53.570;9.964;2022-09-21T07:19:39;10.10;99.90
44817;DHT22;30529;53.570;9.964;2022-09-21T07:22:05;10.10;99.90
44817;DHT22;30529;53.570;9.964;2022-09-21T07:24:32;10.20;99.90
44817;DHT22;30529;53.570;9.964;2022-09-21T07:26:58;10.20;99.90
44817;DHT22;30529;53.570;9.964;2022-09-21T07:29:24;10.30;99.90
44817;DHT22;30529;53.570;9.964;2022-09-21T07:31:50;10.30;99.90
44817;DHT22;30529;53.570;9.964;2022-09-21T07:34:16;10.30;99.90
44817;DHT22;30529;53.570;9.964;2022-09-21T07:36:42;10.40;99.90
44817;DHT22;30529;53.570;9.964;2022-09-21T07:39:09;10.50;99.90
44817;DHT22;30529;53.570;9.964;2022-09-21T07:41:35;10.50;99.90
44817;DHT22;30529;53.570;9.964;2022-09-21T07:44:02;10.60;99.90
44817;DHT22;30529;53.570;9.964;2022-09-21T07:46:28;10.60;99.90
44817;DHT22;30529;53.570;9.964;2022-09-21T07:48:55;10.60;99.90
44817;DHT22;30529;53.570;9.964;2022-09-21T07:51:22;10.60;99.90
44817;DHT22;30529;53.570;9.964;2022-09-21T07:53:53;10.60;99.90
44817;DHT22;30529;53.570;9.964;2022-09-21T07:56:21;10.70;99.90
44817;DHT22;30529;53.570;9.964;2022-09-21T07:58:47;10.70;99.90
44817;DHT22;30529;53.570;9.964;2022-09-21T08:01:34;10.80;99.90
44817;DHT22;30529;53.570;9.964;2022-09-21T08:04:03;10.90;99.90
44817;DHT22;30529;53.570;9.964;2022-09-21T08:06:31;11.00;99.90
44817;DHT22;30529;53.570;9.964;2022-09-21T08:09:02;11.10;99.90
44817;DHT22;30529;53.570;9.964;2022-09-21T08:11:29;11.10;99.90
44817;DHT22;30529;53.570;9.964;2022-09-21T08:13:57;11.20;99.90
44817;DHT22;30529;53.570;9.964;2022-09-21T08:16:24;11.30;99.90
44817;DHT22;30529;53.570;9.964;2022-09-21T08:18:51;11.40;99.90
44817;DHT22;30529;53.570;9.964;2022-09-21T08:21:18;11.40;99.90
44817;DHT22;30529;53.570;9.964;2022-09-21T08:23:46;11.40;99.90
44817;DHT22;30529;53.570;9.964;2022-09-21T08:26:14;11.40;99.90
44817;DHT22;30529;53.570;9.964;2022-09-21T08:28:45;11.50;99.90
44817;DHT22;30529;53.570;9.964;2022-09-21T08:31:20;11.50;99.90
44817;DHT22;30529;53.570;9.964;2022-09-21T08:33:47;11.50;99.90
44817;DHT22;30529;53.570;9.964;2022-09-21T08:36:13;11.60;99.90
44817;DHT22;30529;53.570;9.964;2022-09-21T08:38:39;11.60;99.90
44817;DHT22;30529;53.570;9.964;2022-09-21T08:41:18;11.60;99.90
44817;DHT22;30529;53.570;9.964;2022-09-21T08:43:54;11.60;99.90
44817;DHT22;30529;53.570;9.964;2022-09-21T08:46:25;11.70;99.90
44817;DHT22;30529;53.570;9.964;2022-09-21T08:51:25;11.90;99.90
44817;DHT22;30529;53.570;9.964;2022-09-21T08:53:58;12.00;99.90
44817;DHT22;30529;53.570;9.964;2022-09-21T08:56:27;12.00;99.90
44817;DHT22;30529;53.570;9.964;2022-09-21T08:58:53;12.00;99.90
44817;DHT22;30529;53.570;9.964;2022-09-21T09:04:26;12.10;99.90
44817;DHT22;30529;53.570;9.964;2022-09-21T09:21:09;12.40;99.90
44817;DHT22;30529;53.570;9.964;2022-09-21T09:23:41;12.40;99.90
44817;DHT22;30529;53.570;9.964;2022-09-21T09:26:14;12.50;99.90
44817;DHT22;30529;53.570;9.964;2022-09-21T09:28:59;12.60;99.90
44817;DHT22;30529;53.570;9.964;2022-09-21T09:31:34;12.70;99.90
44817;DHT22;30529;53.570;9.964;2022-09-21T09:34:20;12.70;99.90
44817;DHT22;30529;53.570;9.964;2022-09-21T09:36:57;12.80;99.90
44817;DHT22;30529;53.570;9.964;2022-09-21T09:39:24;12.80;99.90
44817;DHT22;30529;53.570;9.964;2022-09-21T09:42:10;12.90;99.90
44817;DHT22;30529;53.570;9.964;2022-09-21T09:44:53;12.90;99.90
44817;DHT22;30529;53.570;9.964;2022-09-21T09:47:45;12.90;99.90
44817;DHT22;30529;53.570;9.964;2022-09-21T09:52:49;13.10;99.90
44817;DHT22;30529;53.570;9.964;2022-09-21T09:55:22;13.30;99.90
44817;DHT22;30529;53.570;9.964;2022-09-21T09:57:52;13.40;99.90
44817;DHT22;30529;53.570;9.964;2022-09-21T10:00:20;13.40;99.90
44817;DHT22;30529;53.570;9.964;2022-09-21T10:02:52;13.50;99.90
44817;DHT22;30529;53.570;9.964;2022-09-21T10:05:29;13.50;99.90
44817;DHT22;30529;53.570;9.964;2022-09-21T10:07:56;13.60;99.90
44817;DHT22;30529;53.570;9.964;2022-09-21T10:13:37;13.80;99.90
44817;DHT22;30529;53.570;9.964;2022-09-21T10:16:14;13.90;99.90
44817;DHT22;30529;53.570;9.964;2022-09-21T10:19:03;14.10;99.90
44817;DHT22;30529;53.570;9.964;2022-09-21T10:21:35;14.30;99.90
44817;DHT22;30529;53.570;9.964;2022-09-21T10:24:12;14.40;99.90
44817;DHT22;30529;53.570;9.964;2022-09-21T10:26:51;14.50;99.90
44817;DHT22;30529;53.570;9.964;2022-09-21T10:32:01;14.40;99.90
44817;DHT22;30529;53.570;9.964;2022-09-21T10:34:30;14.40;99.90
44817;DHT22;30529;53.570;9.964;2022-09-21T10:36:58;14.40;99.90
44817;DHT22;30529;53.570;9.964;2022-09-21T10:39:30;14.30;99.90
44817;DHT22;30529;53.570;9.964;2022-09-21T10:42:11;14.30;99.90
44817;DHT22;30529;53.570;9.964;2022-09-21T10:44:49;14.30;99.90
44817;DHT22;30529;53.570;9.964;2022-09-21T10:49:55;14.30;99.90
44817;DHT22;30529;53.570;9.964;2022-09-21T10:52:24;14.30;99.90
44817;DHT22;30529;53.570;9.964;2022-09-21T10:54:56;14.20;99.90
44817;DHT22;30529;53.570;9.964;2022-09-21T10:57:24;14.20;99.90
44817;DHT22;30529;53.570;9.964;2022-09-21T10:59:51;14.40;99.90
44817;DHT22;30529;53.570;9.964;2022-09-21T11:07:34;14.20;99.90
44817;DHT22;30529;53.570;9.964;2022-09-21T11:10:18;14.20;99.90
44817;DHT22;30529;53.570;9.964;2022-09-21T11:24:19;14.00;99.90
44817;DHT22;30529;53.570;9.964;2022-09-21T11:29:36;14.00;99.90
44817;DHT22;30529;53.570;9.964;2022-09-21T11:45:00;14.00;99.90
44817;DHT22;30529;53.570;9.964;2022-09-21T11:47:44;14.10;99.90
44817;DHT22;30529;53.570;9.964;2022-09-21T11:50:46;14.10;99.90
44817;DHT22;30529;53.570;9.964;2022-09-21T12:04:21;14.50;99.90
44817;DHT22;30529;53.570;9.964;2022-09-21T12:12:42;14.70;99.90
44817;DHT22;30529;53.570;9.964;2022-09-21T12:15:29;14.70;99.90
44817;DHT22;30529;53.570;9.964;2022-09-21T12:18:29;14.80;99.90
44817;DHT22;30529;53.570;9.964;2022-09-21T12:21:12;14.90;99.90
44817;DHT22;30529;53.570;9.964;2022-09-21T12:23:53;14.90;99.90
44817;DHT22;30529;53.570;9.964;2022-09-21T12:26:24;14.90;99.90
44817;DHT22;30529;53.570;9.964;2022-09-21T12:29:04;15.00;99.90
44817;DHT22;30529;53.570;9.964;2022-09-21T12:31:38;15.00;99.90
44817;DHT22;30529;53.570;9.964;2022-09-21T12:34:25;15.00;99.90
44817;DHT22;30529;53.570;9.964;2022-09-21T12:40:05;14.70;99.90
44817;DHT22;30529;53.570;9.964;2022-09-21T12:42:41;14.70;99.90
44817;DHT22;30529;53.570;9.964;2022-09-21T12:45:18;14.70;99.90
44817;DHT22;30529;53.570;9.964;2022-09-21T12:50:47;14.70;99.90
44817;DHT22;30529;53.570;9.964;2022-09-21T12:53:18;14.60;99.90
44817;DHT22;30529;53.570;9.964;2022-09-21T12:55:57;14.60;99.90
44817;DHT22;30529;53.570;9.964;2022-09-21T12:58:47;14.60;99.90
44817;DHT22;30529;53.570;9.964;2022-09-21T13:07:02;14.70;99.90
44817;DHT22;30529;53.570;9.964;2022-09-21T13:09:33;14.80;99.90
44817;DHT22;30529;53.570;9.964;2022-09-21T13:12:24;15.00;99.90
44817;DHT22;30529;53.570;9.964;2022-09-21T13:14:58;15.10;99.90
44817;DHT22;30529;53.570;9.964;2022-09-21T13:17:31;15.10;99.90
44817;DHT22;30529;53.570;9.964;2022-09-21T13:20:19;15.20;99.90
44817;DHT22;30529;53.570;9.964;2022-09-21T13:22:46;15.20;99.90
44817;DHT22;30529;53.570;9.964;2022-09-21T13:25:18;15.20;99.90
44817;DHT22;30529;53.570;9.964;2022-09-21T13:30:47;15.20;99.90
44817;DHT22;30529;53.570;9.964;2022-09-21T13:35:54;15.40;99.90
44817;DHT22;30529;53.570;9.964;2022-09-21T13:38:31;15.30;99.90
44817;DHT22;30529;53.570;9.964;2022-09-21T13:49:22;15.00;99.90
44817;DHT22;30529;53.570;9.964;2022-09-21T13:57:33;15.30;99.90
44817;DHT22;30529;53.570;9.964;2022-09-21T14:05:46;15.40;99.90
44817;DHT22;30529;53.570;9.964;2022-09-21T14:10:49;15.10;99.90
44817;DHT22;30529;53.570;9.964;2022-09-21T14:13:33;15.10;99.90
44817;DHT22;30529;53.570;9.964;2022-09-21T14:19:06;15.20;99.90
44817;DHT22;30529;53.570;9.964;2022-09-21T14:32:21;15.10;99.90
44817;DHT22;30529;53.570;9.964;2022-09-21T14:34:51;15.10;99.90
44817;DHT22;30529;53.570;9.964;2022-09-21T14:37:40;15.10;99.90
44817;DHT22;30529;53.570;9.964;2022-09-21T14:40:29;15.10;99.90
44817;DHT22;30529;53.570;9.964;2022-09-21T14:42:59;15.10;99.90
44817;DHT22;30529;53.570;9.964;2022-09-21T14:48:37;15.20;99.90
44817;DHT22;30529;53.570;9.964;2022-09-21T14:51:23;15.20;99.90
44817;DHT22;30529;53.570;9.964;2022-09-21T14:59:59;15.40;99.90
44817;DHT22;30529;53.570;9.964;2022-09-21T15:02:31;15.50;99.90
44817;DHT22;30529;53.570;9.964;2022-09-21T15:13:38;15.70;99.90
44817;DHT22;30529;53.570;9.964;2022-09-21T15:22:27;15.40;99.90
44817;DHT22;30529;53.570;9.964;2022-09-21T15:24:34;15.30;99.90
44817;DHT22;30529;53.570;9.964;2022-09-21T15:27:14;15.30;99.90
44817;DHT22;30529;53.570;9.964;2022-09-21T15:29:46;15.40;99.90
44817;DHT22;30529;53.570;9.964;2022-09-21T15:35:01;15.30;99.90
44817;DHT22;30529;53.570;9.964;2022-09-21T15:37:28;15.30;99.90
44817;DHT22;30529;53.570;9.964;2022-09-21T15:40:00;15.30;99.90
44817;DHT22;30529;53.570;9.964;2022-09-21T15:42:27;15.20;99.90
44817;DHT22;30529;53.570;9.964;2022-09-21T15:45:18;15.20;99.90
44817;DHT22;30529;53.570;9.964;2022-09-21T15:47:44;15.20;99.90
44817;DHT22;30529;53.570;9.964;2022-09-21T15:50:15;15.20;99.90
44817;DHT22;30529;53.570;9.964;2022-09-21T15:52:49;15.10;99.90
44817;DHT22;30529;53.570;9.964;2022-09-21T15:55:19;15.10;99.90
44817;DHT22;30529;53.570;9.964;2022-09-21T15:57:56;15.20;99.90
44817;DHT22;30529;53.570;9.964;2022-09-21T16:00:25;15.20;99.90
44817;DHT22;30529;53.570;9.964;2022-09-21T16:02:59;15.20;99.90
44817;DHT22;30529;53.570;9.964;2022-09-21T16:08:34;15.20;99.90
44817;DHT22;30529;53.570;9.964;2022-09-21T16:13:38;15.30;99.90
44817;DHT22;30529;53.570;9.964;2022-09-21T16:16:23;15.30;99.90
44817;DHT22;30529;53.570;9.964;2022-09-21T16:18:51;15.30;99.90
44817;DHT22;30529;53.570;9.964;2022-09-21T16:21:34;15.20;99.90
44817;DHT22;30529;53.570;9.964;2022-09-21T16:24:16;15.20;99.90
44817;DHT22;30529;53.570;9.964;2022-09-21T16:26:59;15.20;99.90
44817;DHT22;30529;53.570;9.964;2022-09-21T16:29:40;15.10;99.90
44817;DHT22;30529;53.570;9.964;2022-09-21T16:34:47;15.00;99.90
44817;DHT22;30529;53.570;9.964;2022-09-21T16:39:47;14.80;99.90
44817;DHT22;30529;53.570;9.964;2022-09-21T16:42:14;14.80;99.90
44817;DHT22;30529;53.570;9.964;2022-09-21T16:44:41;14.70;99.90
44817;DHT22;30529;53.570;9.964;2022-09-21T16:47:13;14.70;99.90
44817;DHT22;30529;53.570;9.964;2022-09-21T16:49:40;14.70;99.90
44817;DHT22;30529;53.570;9.964;2022-09-21T16:52:07;14.70;99.90
44817;DHT22;30529;53.570;9.964;2022-09-21T16:54:33;14.70;99.90
44817;DHT22;30529;53.570;9.964;2022-09-21T16:57:04;14.70;99.90
44817;DHT22;30529;53.570;9.964;2022-09-21T16:59:31;14.70;99.90
44817;DHT22;30529;53.570;9.964;2022-09-21T17:01:58;14.60;99.90
44817;DHT22;30529;53.570;9.964;2022-09-21T17:04:27;14.60;99.90
44817;DHT22;30529;53.570;9.964;2022-09-21T17:06:54;14.60;99.90
44817;DHT22;30529;53.570;9.964;2022-09-21T17:09:26;14.50;99.90
44817;DHT22;30529;53.570;9.964;2022-09-21T17:11:53;14.40;99.90
44817;DHT22;30529;53.570;9.964;2022-09-21T17:14:22;14.40;99.90
44817;DHT22;30529;53.570;9.964;2022-09-21T17:16:52;14.40;99.90
44817;DHT22;30529;53.570;9.964;2022-09-21T17:19:19;14.40;99.90
44817;DHT22;30529;53.570;9.964;2022-09-21T17:21:46;14.30;99.90
44817;DHT22;30529;53.570;9.964;2022-09-21T17:24:13;14.30;99.90
44817;DHT22;30529;53.570;9.964;2022-09-21T17:26:41;14.30;99.90
44817;DHT22;30529;53.570;9.964;2022-09-21T17:29:22;14.30;99.90
44817;DHT22;30529;53.570;9.964;2022-09-21T17:31:53;14.20;99.90
44817;DHT22;30529;53.570;9.964;2022-09-21T17:34:23;14.20;99.90
44817;DHT22;30529;53.570;9.964;2022-09-21T17:36:50;14.10;99.90
44817;DHT22;30529;53.570;9.964;2022-09-21T17:39:17;14.10;99.90
44817;DHT22;30529;53.570;9.964;2022-09-21T17:41:55;14.00;99.90
44817;DHT22;30529;53.570;9.964;2022-09-21T17:47:38;13.90;99.90
44817;DHT22;30529;53.570;9.964;2022-09-21T17:52:33;13.80;99.90
44817;DHT22;30529;53.570;9.964;2022-09-21T17:55:18;13.80;99.90
44817;DHT22;30529;53.570;9.964;2022-09-21T18:03:01;13.80;99.90
44817;DHT22;30529;53.570;9.964;2022-09-21T18:05:29;13.70;99.90
44817;DHT22;30529;53.570;9.964;2022-09-21T18:07:55;13.60;99.90
44817;DHT22;30529;53.570;9.964;2022-09-21T18:10:23;13.60;99.90
44817;DHT22;30529;53.570;9.964;2022-09-21T18:13:12;13.50;99.90
44817;DHT22;30529;53.570;9.964;2022-09-21T18:15:49;13.50;99.90
44817;DHT22;30529;53.570;9.964;2022-09-21T18:21:30;13.30;99.90
44817;DHT22;30529;53.570;9.964;2022-09-21T18:26:32;13.20;99.90
44817;DHT22;30529;53.570;9.964;2022-09-21T18:29:00;13.20;99.90
44817;DHT22;30529;53.570;9.964;2022-09-21T18:42:44;13.00;99.90
44817;DHT22;30529;53.570;9.964;2022-09-21T18:45:30;12.90;99.90
44817;DHT22;30529;53.570;9.964;2022-09-21T18:50:37;12.80;99.90
44817;DHT22;30529;53.570;9.964;2022-09-21T18:53:22;12.80;99.90
44817;DHT22;30529;53.570;9.964;2022-09-21T18:55:49;12.80;99.90
44817;DHT22;30529;53.570;9.964;2022-09-21T18:58:17;12.70;99.90
44817;DHT22;30529;53.570;9.964;2022-09-21T19:00:43;12.70;99.90
44817;DHT22;30529;53.570;9.964;2022-09-21T19:03:14;12.70;99.90
44817;DHT22;30529;53.570;9.964;2022-09-21T19:05:58;12.60;99.90
44817;DHT22;30529;53.570;9.964;2022-09-21T19:19:37;12.40;99.90
44817;DHT22;30529;53.570;9.964;2022-09-21T19:22:14;12.40;99.90
44817;DHT22;30529;53.570;9.964;2022-09-21T19:24:55;12.40;99.90
44817;DHT22;30529;53.570;9.964;2022-09-21T19:30:06;12.30;99.90
44817;DHT22;30529;53.570;9.964;2022-09-21T19:35:17;12.20;99.90
44817;DHT22;30529;53.570;9.964;2022-09-21T19:37:45;12.20;99.90
44817;DHT22;30529;53.570;9.964;2022-09-21T19:40:14;12.20;99.90
44817;DHT22;30529;53.570;9.964;2022-09-21T19:43:06;12.20;99.90
44817;DHT22;30529;53.570;9.964;2022-09-21T19:48:15;12.10;99.90
44817;DHT22;30529;53.570;9.964;2022-09-21T19:50:54;12.10;99.90
44817;DHT22;30529;53.570;9.964;2022-09-21T19:53:22;12.00;99.90
44817;DHT22;30529;53.570;9.964;2022-09-21T19:56:10;12.00;99.90
44817;DHT22;30529;53.570;9.964;2022-09-21T19:58:56;12.00;99.90
44817;DHT22;30529;53.570;9.964;2022-09-21T20:01:47;12.00;99.90
44817;DHT22;30529;53.570;9.964;2022-09-21T20:04:25;12.00;99.90
44817;DHT22;30529;53.570;9.964;2022-09-21T20:06:59;11.90;99.90
44817;DHT22;30529;53.570;9.964;2022-09-21T20:09:38;11.90;99.90
44817;DHT22;30529;53.570;9.964;2022-09-21T20:12:38;11.90;99.90
44817;DHT22;30529;53.570;9.964;2022-09-21T20:15:18;11.90;99.90
44817;DHT22;30529;53.570;9.964;2022-09-21T20:18:18;11.80;99.90